createdAt,value
2022-10-31T00:00:48.068Z,3.75
2022-10-31T00:03:14.742Z,3.67
2022-10-31T00:05:46.207Z,4.15
2022-10-31T00:08:12.708Z,3.47
2022-10-31T00:13:10.686Z,3.80
2022-10-31T00:15:41.527Z,3.63
2022-10-31T00:18:09.851Z,3.70
2022-10-31T00:20:36.691Z,3.47
2022-10-31T00:23:05.088Z,4.00
2022-10-31T00:25:36.387Z,3.20
2022-10-31T00:28:04.083Z,3.20
2022-10-31T00:30:31.063Z,3.05
2022-10-31T00:32:58.150Z,3.85
2022-10-31T00:35:24.980Z,3.78
2022-10-31T00:37:51.572Z,3.95
2022-10-31T00:40:18.113Z,3.67
2022-10-31T00:45:11.963Z,3.83
2022-10-31T00:47:38.663Z,3.70
2022-10-31T00:50:06.691Z,3.80
2022-10-31T00:52:33.232Z,3.92
2022-10-31T00:57:26.359Z,3.72
2022-10-31T01:02:19.868Z,4.07
2022-10-31T01:04:46.653Z,3.75
2022-10-31T01:09:41.810Z,3.20
2022-10-31T01:12:09.079Z,3.25
2022-10-31T01:14:35.699Z,4.78
2022-10-31T01:17:02.137Z,3.30
2022-10-31T01:19:28.697Z,4.20
2022-10-31T01:24:22.188Z,3.23
2022-10-31T01:29:15.131Z,3.88
2022-10-31T01:34:08.265Z,3.10
2022-10-31T01:36:37.433Z,3.45
2022-10-31T01:39:06.805Z,3.83
2022-10-31T01:41:39.053Z,3.88
2022-10-31T01:44:14.613Z,3.78
2022-10-31T01:46:55.497Z,3.67
2022-10-31T01:49:21.958Z,4.22
2022-10-31T01:51:59.823Z,3.78
2022-10-31T01:54:33.181Z,3.67
2022-10-31T01:57:00.937Z,4.20
2022-10-31T01:59:32.922Z,5.07
2022-10-31T02:01:59.631Z,4.35
2022-10-31T02:04:27.202Z,3.65
2022-10-31T02:07:08.386Z,4.00
2022-10-31T02:09:36.732Z,3.92
2022-10-31T02:12:04.611Z,4.55
2022-10-31T02:14:32.417Z,3.70
2022-10-31T02:16:59.077Z,3.20
2022-10-31T02:19:35.421Z,4.85
2022-10-31T02:22:21.314Z,4.35
2022-10-31T02:25:04.457Z,3.67
2022-10-31T02:27:46.991Z,3.67
2022-10-31T02:30:38.375Z,4.60
2022-10-31T02:33:23.310Z,4.43
2022-10-31T02:36:04.714Z,3.88
2022-10-31T02:38:45.076Z,4.07
2022-10-31T02:41:17.272Z,4.15
2022-10-31T02:43:49.580Z,4.53
2022-10-31T02:46:25.452Z,4.45
2022-10-31T02:48:56.621Z,3.80
2022-10-31T02:51:23.291Z,4.65
2022-10-31T02:53:49.823Z,4.72
2022-10-31T03:02:06.321Z,4.00
2022-10-31T03:04:54.887Z,4.65
2022-10-31T03:08:07.707Z,5.07
2022-10-31T03:10:43.188Z,4.70
2022-10-31T03:13:42.245Z,4.45
2022-10-31T03:16:12.306Z,4.07
2022-10-31T03:18:44.004Z,3.97
2022-10-31T03:21:17.647Z,4.80
2022-10-31T03:23:47.687Z,4.78
2022-10-31T03:26:16.483Z,4.57
2022-10-31T03:28:54.723Z,5.22
2022-10-31T03:31:27.579Z,4.50
2022-10-31T03:33:57.716Z,5.18
2022-10-31T03:36:24.879Z,4.63
2022-10-31T03:38:52.479Z,5.57
2022-10-31T03:41:22.746Z,5.20
2022-10-31T03:43:56.408Z,5.05
2022-10-31T03:46:23.936Z,4.30
2022-10-31T03:48:50.804Z,5.10
2022-10-31T03:51:30.492Z,4.57
2022-10-31T03:54:03.625Z,5.15
2022-10-31T03:56:48.748Z,4.97
2022-10-31T03:59:22.061Z,4.32
2022-10-31T04:01:53.712Z,5.13
2022-10-31T04:04:21.268Z,5.10
2022-10-31T04:06:50.056Z,5.25
2022-10-31T04:09:18.720Z,4.43
2022-10-31T04:11:50.313Z,5.50
2022-10-31T04:14:16.856Z,4.30
2022-10-31T04:21:40.916Z,3.90
2022-10-31T04:24:07.910Z,4.35
2022-10-31T04:26:34.445Z,4.70
2022-10-31T04:31:27.507Z,4.10
2022-10-31T04:33:54.025Z,5.88
2022-10-31T04:38:47.010Z,4.95
2022-10-31T04:43:39.943Z,4.82
2022-10-31T04:48:32.828Z,4.00
2022-10-31T04:51:01.282Z,4.78
2022-10-31T04:53:28.297Z,4.65
2022-10-31T04:55:54.811Z,4.95
2022-10-31T04:58:21.351Z,6.28
2022-10-31T05:00:47.972Z,5.60
2022-10-31T05:05:40.953Z,5.20
2022-10-31T05:08:07.442Z,4.90
2022-10-31T05:10:34.003Z,8.07
2022-10-31T05:15:29.715Z,5.15
2022-10-31T05:17:57.267Z,5.95
2022-10-31T05:20:28.771Z,6.00
2022-10-31T05:22:57.487Z,5.47
2022-10-31T05:25:27.260Z,6.68
2022-10-31T05:27:55.027Z,5.93
2022-10-31T05:30:24.366Z,5.45
2022-10-31T05:32:52.023Z,5.28
2022-10-31T05:35:22.474Z,5.00
2022-10-31T05:37:49.063Z,5.57
2022-10-31T05:42:44.220Z,5.20
2022-10-31T05:45:13.445Z,5.65
2022-10-31T05:47:40.395Z,6.07
2022-10-31T05:50:08.632Z,4.95
2022-10-31T05:52:35.498Z,5.65
2022-10-31T05:55:02.050Z,6.18
2022-10-31T05:59:56.011Z,4.65
2022-10-31T06:02:22.775Z,5.38
2022-10-31T06:04:49.275Z,6.15
2022-10-31T06:09:42.229Z,4.97
2022-10-31T06:14:35.119Z,6.47
2022-10-31T06:17:01.712Z,5.82
2022-10-31T06:21:54.497Z,5.30
2022-10-31T06:24:20.987Z,5.25
2022-10-31T06:26:47.440Z,6.22
2022-10-31T06:29:13.858Z,7.22
2022-10-31T06:31:40.282Z,5.68
2022-10-31T06:34:06.755Z,6.32
2022-10-31T06:36:33.193Z,6.80
2022-10-31T06:38:59.623Z,5.85
2022-10-31T06:41:26.060Z,7.07
2022-10-31T06:43:52.500Z,5.60
2022-10-31T06:46:18.972Z,6.72
2022-10-31T06:48:45.403Z,5.13
2022-10-31T06:51:11.906Z,4.25
2022-10-31T06:53:38.345Z,4.68
2022-10-31T06:56:05.072Z,6.05
2022-10-31T06:58:31.526Z,4.80
2022-10-31T07:01:03.286Z,5.60
2022-10-31T07:03:29.776Z,5.00
2022-10-31T07:05:57.601Z,5.25
2022-10-31T07:08:24.961Z,5.70
2022-10-31T07:10:54.568Z,6.28
2022-10-31T07:13:26.418Z,5.82
2022-10-31T07:16:00.465Z,5.43
2022-10-31T07:18:27.076Z,5.35
2022-10-31T07:20:54.264Z,5.43
2022-10-31T07:23:20.841Z,5.82
2022-10-31T07:25:47.318Z,5.90
2022-10-31T07:30:40.621Z,4.80
2022-10-31T07:33:07.497Z,5.40
2022-10-31T07:35:35.797Z,5.90
2022-10-31T07:38:10.253Z,5.10
2022-10-31T07:40:36.691Z,4.88
2022-10-31T07:45:29.805Z,5.47
2022-10-31T07:47:56.364Z,5.90
2022-10-31T07:50:25.702Z,6.57
2022-10-31T07:53:24.803Z,6.63
2022-10-31T07:55:51.570Z,5.22
2022-10-31T07:58:18.574Z,6.95
2022-10-31T08:00:46.984Z,6.30
2022-10-31T08:03:16.365Z,6.63
2022-10-31T08:05:43.350Z,5.40
2022-10-31T08:08:10.193Z,6.60
2022-10-31T08:10:37.239Z,5.30
2022-10-31T08:13:06.536Z,5.53
2022-10-31T08:15:35.221Z,5.30
2022-10-31T08:18:03.369Z,4.80
2022-10-31T08:20:30.080Z,5.15
2022-10-31T08:23:01.723Z,6.55
2022-10-31T08:25:33.780Z,6.00
2022-10-31T08:28:04.200Z,6.10
2022-10-31T08:30:32.030Z,6.18
2022-10-31T08:33:05.697Z,7.13
2022-10-31T08:35:33.464Z,5.22
2022-10-31T08:38:00.603Z,5.78
2022-10-31T08:40:29.387Z,6.00
2022-10-31T08:43:00.176Z,5.78
2022-10-31T08:45:26.883Z,5.90
2022-10-31T08:47:53.452Z,5.65
2022-10-31T08:50:20.051Z,6.07
2022-10-31T08:53:04.258Z,5.00
2022-10-31T08:55:31.796Z,5.32
2022-10-31T08:57:59.178Z,6.60
2022-10-31T09:00:26.138Z,6.50
2022-10-31T09:02:59.808Z,7.32
2022-10-31T09:05:26.336Z,7.00
2022-10-31T09:07:57.322Z,6.25
2022-10-31T09:10:25.348Z,5.55
2022-10-31T09:13:05.141Z,5.55
2022-10-31T09:15:31.719Z,6.53
2022-10-31T09:17:58.348Z,7.43
2022-10-31T09:20:25.221Z,7.28
2022-10-31T09:22:59.418Z,6.88
2022-10-31T09:25:26.290Z,7.82
2022-10-31T09:27:57.019Z,7.25
2022-10-31T09:30:23.510Z,6.70
2022-10-31T09:32:56.626Z,6.68
2022-10-31T09:35:25.712Z,7.32
2022-10-31T09:38:24.381Z,6.70
2022-10-31T09:41:08.805Z,6.13
2022-10-31T09:43:54.010Z,6.28
2022-10-31T09:46:31.671Z,7.10
2022-10-31T09:49:04.250Z,7.03
2022-10-31T09:51:35.546Z,6.47
2022-10-31T09:54:15.638Z,6.55
2022-10-31T09:56:43.218Z,6.53
2022-10-31T09:59:21.935Z,6.75
2022-10-31T10:02:17.778Z,6.80
2022-10-31T10:04:52.525Z,7.30
2022-10-31T10:07:33.925Z,7.28
2022-10-31T10:10:03.344Z,7.13
2022-10-31T10:13:20.927Z,7.35
2022-10-31T10:15:58.643Z,6.50
2022-10-31T10:18:40.456Z,6.85
2022-10-31T10:21:40.760Z,7.60
2022-10-31T10:24:44.305Z,7.28
2022-10-31T10:27:28.310Z,7.30
2022-10-31T10:30:07.448Z,6.93
2022-10-31T10:32:49.262Z,6.47
2022-10-31T10:35:25.418Z,6.35
2022-10-31T10:38:05.233Z,6.90
2022-10-31T10:40:32.104Z,6.18
2022-10-31T10:43:23.821Z,6.75
2022-10-31T10:46:27.655Z,6.03
2022-10-31T10:49:10.135Z,6.13
2022-10-31T10:52:40.839Z,6.95
2022-10-31T10:55:26.282Z,5.43
2022-10-31T10:58:05.581Z,6.10
2022-10-31T11:00:37.000Z,5.35
2022-10-31T11:03:04.197Z,5.72
2022-10-31T11:05:43.212Z,6.40
2022-10-31T11:08:10.097Z,5.88
2022-10-31T11:10:36.645Z,5.53
2022-10-31T11:13:18.591Z,5.90
2022-10-31T11:16:01.567Z,5.30
2022-10-31T11:18:31.593Z,5.38
2022-10-31T11:21:00.898Z,5.93
2022-10-31T11:23:29.697Z,5.63
2022-10-31T11:26:07.609Z,5.32
2022-10-31T11:28:38.084Z,5.55
2022-10-31T11:31:14.841Z,4.93
2022-10-31T11:33:49.042Z,5.10
2022-10-31T11:36:37.102Z,4.70
2022-10-31T11:39:06.659Z,4.25
2022-10-31T11:41:36.892Z,4.50
2022-10-31T11:44:22.024Z,4.22
2022-10-31T11:46:51.552Z,4.15
2022-10-31T11:49:26.796Z,4.10
2022-10-31T11:51:56.736Z,3.83
2022-10-31T11:54:30.435Z,3.90
2022-10-31T11:56:57.424Z,4.68
2022-10-31T11:59:29.701Z,3.50
2022-10-31T12:01:58.419Z,3.35
2022-10-31T12:04:46.053Z,3.70
2022-10-31T12:07:12.591Z,3.25
2022-10-31T12:09:39.825Z,3.45
2022-10-31T12:12:14.821Z,3.58
2022-10-31T12:14:47.046Z,3.83
2022-10-31T12:17:21.067Z,3.55
2022-10-31T12:20:07.305Z,4.00
2022-10-31T12:23:09.273Z,3.85
2022-10-31T12:25:47.804Z,3.22
2022-10-31T12:28:31.025Z,3.85
2022-10-31T12:31:22.861Z,3.33
2022-10-31T12:34:22.422Z,4.13
2022-10-31T12:37:09.803Z,3.55
2022-10-31T12:40:08.137Z,3.60
2022-10-31T12:43:09.218Z,3.20
2022-10-31T12:45:48.242Z,3.15
2022-10-31T12:48:17.375Z,3.40
2022-10-31T12:51:15.062Z,3.65
2022-10-31T12:56:22.173Z,3.33
2022-10-31T12:58:57.073Z,3.45
2022-10-31T13:01:30.639Z,3.28
2022-10-31T13:04:06.241Z,3.08
2022-10-31T13:06:44.298Z,3.05
2022-10-31T13:09:17.297Z,3.15
2022-10-31T13:11:52.946Z,3.00
2022-10-31T13:14:43.011Z,2.90
2022-10-31T13:17:21.790Z,2.83
2022-10-31T13:19:51.440Z,2.42
2022-10-31T13:22:22.576Z,2.80
2022-10-31T13:25:04.930Z,3.65
2022-10-31T13:27:42.748Z,3.40
2022-10-31T13:30:22.017Z,3.22
2022-10-31T13:33:01.099Z,2.67
2022-10-31T13:35:49.979Z,2.97
2022-10-31T13:38:38.700Z,2.70
2022-10-31T13:41:22.915Z,3.05
2022-10-31T13:44:03.709Z,3.70
2022-10-31T13:46:33.127Z,3.05
2022-10-31T13:48:59.899Z,3.00
2022-10-31T13:51:32.008Z,3.97
2022-10-31T13:53:58.529Z,3.88
2022-10-31T13:56:34.483Z,3.65
2022-10-31T13:59:10.011Z,4.10
2022-10-31T14:01:37.561Z,3.88
2022-10-31T14:04:19.239Z,3.75
2022-10-31T14:07:23.788Z,3.90
2022-10-31T14:09:57.389Z,3.92
2022-10-31T14:12:42.403Z,3.55
2022-10-31T14:15:19.414Z,3.92
2022-10-31T14:18:02.610Z,5.28
2022-10-31T14:20:58.552Z,4.10
2022-10-31T14:23:38.903Z,4.40
2022-10-31T14:26:08.168Z,5.03
2022-10-31T14:28:36.488Z,4.57
2022-10-31T14:31:03.060Z,5.40
2022-10-31T14:33:31.941Z,4.45
2022-10-31T14:36:36.847Z,4.53
2022-10-31T14:39:25.245Z,4.20
2022-10-31T14:42:19.121Z,4.90
2022-10-31T14:45:00.891Z,4.07
2022-10-31T14:47:42.493Z,4.22
2022-10-31T14:50:36.730Z,3.75
2022-10-31T14:53:06.272Z,3.55
2022-10-31T14:55:33.438Z,4.57
2022-10-31T14:58:07.013Z,3.92
2022-10-31T15:00:36.494Z,3.95
2022-10-31T15:03:22.955Z,3.85
2022-10-31T15:05:55.185Z,4.22
2022-10-31T15:08:33.473Z,4.45
2022-10-31T15:11:04.374Z,4.00
2022-10-31T15:13:30.878Z,3.95
2022-10-31T15:15:57.397Z,4.10
2022-10-31T15:18:29.595Z,3.80
2022-10-31T15:20:57.687Z,3.60
2022-10-31T15:23:29.942Z,3.67
2022-10-31T15:26:01.319Z,4.25
2022-10-31T15:28:28.592Z,4.18
2022-10-31T15:30:58.176Z,3.70
2022-10-31T15:33:27.857Z,3.40
2022-10-31T15:36:02.819Z,3.30
2022-10-31T15:38:30.543Z,4.55
2022-10-31T15:41:06.155Z,4.32
2022-10-31T15:43:38.989Z,4.38
2022-10-31T15:46:09.804Z,4.28
2022-10-31T15:48:36.528Z,3.80
2022-10-31T15:51:03.555Z,4.05
2022-10-31T15:53:38.835Z,3.83
2022-10-31T15:56:09.378Z,4.30
2022-10-31T15:58:45.119Z,3.78
2022-10-31T16:01:20.923Z,4.15
2022-10-31T16:03:59.823Z,4.25
2022-10-31T16:06:27.015Z,3.90
2022-10-31T16:08:53.546Z,3.90
2022-10-31T16:11:29.049Z,4.40
2022-10-31T16:14:05.647Z,4.93
2022-10-31T16:16:36.041Z,4.82
2022-10-31T16:19:05.525Z,5.43
2022-10-31T16:21:36.183Z,4.35
2022-10-31T16:24:26.040Z,6.10
2022-10-31T16:27:02.834Z,5.32
2022-10-31T16:29:49.793Z,5.82
2022-10-31T16:32:53.612Z,6.15
2022-10-31T16:35:25.880Z,5.47
2022-10-31T16:37:52.607Z,6.18
2022-10-31T16:40:19.344Z,8.65
2022-10-31T16:42:48.930Z,7.97
2022-10-31T16:45:19.374Z,7.28
2022-10-31T16:47:46.264Z,8.57
2022-10-31T16:50:20.867Z,7.45
2022-10-31T16:55:36.031Z,7.78
2022-10-31T16:58:03.059Z,8.48
2022-10-31T17:00:30.130Z,8.80
2022-10-31T17:02:57.733Z,9.02
2022-10-31T17:05:30.440Z,10.25
2022-10-31T17:07:58.211Z,8.95
2022-10-31T17:10:26.125Z,9.55
2022-10-31T17:12:53.426Z,9.55
2022-10-31T17:15:25.754Z,11.38
2022-10-31T17:17:52.898Z,10.55
2022-10-31T17:20:21.293Z,10.73
2022-10-31T17:22:48.021Z,11.60
2022-10-31T17:25:20.136Z,12.73
2022-10-31T17:27:47.473Z,13.80
2022-10-31T17:30:15.397Z,13.63
2022-10-31T17:32:42.745Z,13.82
2022-10-31T17:35:10.197Z,14.68
2022-10-31T17:37:36.938Z,14.73
2022-10-31T17:40:04.086Z,14.98
2022-10-31T17:42:30.756Z,14.60
2022-10-31T17:44:57.236Z,14.82
2022-10-31T17:49:50.298Z,12.77
2022-10-31T17:52:16.735Z,14.10
2022-10-31T17:57:09.708Z,14.43
2022-10-31T17:59:36.629Z,16.80
2022-10-31T18:02:08.756Z,21.25
2022-10-31T18:04:35.782Z,19.52
2022-10-31T18:07:02.648Z,16.67
2022-10-31T18:09:29.064Z,18.92
2022-10-31T18:11:55.612Z,20.77
2022-10-31T18:16:48.593Z,17.90
2022-10-31T18:21:43.020Z,14.55
2022-10-31T18:24:09.927Z,16.33
2022-10-31T18:26:37.103Z,18.88
2022-10-31T18:29:04.099Z,19.10
2022-10-31T18:31:30.535Z,19.45
2022-10-31T18:36:25.003Z,17.35
2022-10-31T18:38:51.583Z,19.13
2022-10-31T18:41:18.053Z,20.33
2022-10-31T18:46:14.117Z,17.73
2022-10-31T18:48:42.544Z,21.20
2022-10-31T18:51:11.660Z,25.50
2022-10-31T18:53:38.141Z,22.75
2022-10-31T18:58:35.141Z,20.95
2022-10-31T19:03:32.588Z,15.00
2022-10-31T19:05:59.025Z,18.60
2022-10-31T19:08:25.688Z,21.15
2022-10-31T19:10:52.257Z,20.13
2022-10-31T19:15:47.357Z,16.23
2022-10-31T19:20:40.237Z,15.20
2022-10-31T19:25:33.295Z,16.63
2022-10-31T19:30:27.306Z,13.98
2022-10-31T19:32:55.908Z,16.83
2022-10-31T19:35:22.327Z,20.90
2022-10-31T19:37:48.826Z,18.20
2022-10-31T19:42:41.577Z,18.83
2022-10-31T19:45:08.214Z,19.20
2022-10-31T19:50:01.054Z,16.33
2022-10-31T19:52:27.610Z,19.80
2022-10-31T19:57:35.795Z,19.80
2022-10-31T20:00:07.644Z,20.08
2022-10-31T20:02:34.052Z,20.08
2022-10-31T20:05:01.858Z,21.92
2022-10-31T20:07:28.298Z,19.58
2022-10-31T20:09:54.789Z,19.58
2022-10-31T20:14:49.589Z,20.27
2022-10-31T20:17:16.026Z,23.30
2022-10-31T20:22:09.102Z,20.90
2022-10-31T20:24:35.859Z,24.05
2022-10-31T20:27:03.325Z,22.15
2022-10-31T20:29:29.780Z,23.00
2022-10-31T20:31:57.182Z,22.35
2022-10-31T20:34:23.601Z,19.77
2022-10-31T20:36:50.073Z,20.63
2022-10-31T20:39:16.656Z,22.77
2022-10-31T20:44:09.540Z,19.63
2022-10-31T20:46:36.028Z,21.20
2022-10-31T20:49:02.474Z,21.95
2022-10-31T20:51:29.209Z,22.65
2022-10-31T20:53:57.178Z,23.23
2022-10-31T20:56:25.898Z,23.90
2022-10-31T20:58:54.556Z,21.50
2022-10-31T21:01:29.731Z,23.05
2022-10-31T21:03:56.814Z,22.73
2022-10-31T21:06:23.482Z,18.52
2022-10-31T21:08:50.777Z,21.65
2022-10-31T21:11:23.225Z,23.23
2022-10-31T21:13:50.782Z,21.75
2022-10-31T21:16:20.066Z,19.85
2022-10-31T21:18:49.209Z,21.27
2022-10-31T21:21:21.409Z,22.55
2022-10-31T21:23:48.620Z,19.35
2022-10-31T21:26:23.243Z,20.52
2022-10-31T21:28:52.054Z,20.42
2022-10-31T21:31:18.766Z,19.85
2022-10-31T21:33:46.521Z,21.50
2022-10-31T21:36:13.662Z,22.50
2022-10-31T21:38:40.714Z,22.13
2022-10-31T21:41:10.036Z,21.60
2022-10-31T21:43:38.266Z,19.13
2022-10-31T21:46:05.830Z,18.88
2022-10-31T21:48:33.210Z,18.65
2022-10-31T21:51:06.541Z,18.30
2022-10-31T21:53:51.458Z,18.75
2022-10-31T21:56:18.036Z,16.20
2022-10-31T22:01:11.871Z,18.67
2022-10-31T22:03:40.280Z,16.08
2022-10-31T22:06:09.306Z,16.10
2022-10-31T22:08:36.395Z,17.45
2022-10-31T22:11:04.802Z,15.85
2022-10-31T22:13:32.574Z,15.38
2022-10-31T22:16:03.801Z,17.52
2022-10-31T22:18:30.352Z,15.05
2022-10-31T22:23:29.386Z,13.80
2022-10-31T22:25:55.866Z,16.27
2022-10-31T22:30:48.887Z,14.73
2022-10-31T22:35:41.733Z,15.48
2022-10-31T22:38:08.175Z,18.17
2022-10-31T22:40:34.587Z,18.05
2022-10-31T22:43:01.282Z,17.60
2022-10-31T22:45:28.081Z,22.17
2022-10-31T22:50:20.887Z,19.33
2022-10-31T22:52:47.336Z,22.52
2022-10-31T22:55:15.523Z,17.65
2022-10-31T22:57:41.953Z,21.13
2022-10-31T23:00:09.087Z,20.15
2022-10-31T23:02:35.742Z,18.25
2022-10-31T23:05:02.276Z,26.98
2022-10-31T23:09:59.591Z,17.85
2022-10-31T23:12:44.636Z,18.00
2022-10-31T23:15:11.087Z,19.00
2022-10-31T23:17:39.090Z,18.60
2022-10-31T23:20:07.111Z,16.98
2022-10-31T23:22:33.573Z,18.92
2022-10-31T23:25:00.051Z,19.20
2022-10-31T23:27:27.116Z,16.63
2022-10-31T23:29:58.194Z,17.60
2022-10-31T23:32:29.621Z,17.33
2022-10-31T23:35:04.832Z,17.20
2022-10-31T23:37:34.749Z,16.10
